sensor_id;sensor_type;location;lat;lon;timestamp;pressure;altitude;pressure_sealevel;temperature;humidity
59435;BME280;45241;49.768;8.636;2023-04-28T00:01:18;99996.47;;;14.54;70.89
59435;BME280;45241;49.768;8.636;2023-04-28T00:03:43;99988.28;;;14.42;70.47
59435;BME280;45241;49.768;8.636;2023-04-28T00:06:09;99991.28;;;14.52;67.46
59435;BME280;45241;49.768;8.636;2023-04-28T00:08:35;99986.78;;;14.46;66.67
59435;BME280;45241;49.768;8.636;2023-04-28T00:11:00;99974.19;;;14.58;66.27
59435;BME280;45241;49.768;8.636;2023-04-28T00:13:26;99984.66;;;14.48;66.26
59435;BME280;45241;49.768;8.636;2023-04-28T00:15:52;99967.00;;;14.52;66.64
59435;BME280;45241;49.768;8.636;2023-04-28T00:18:20;99973.28;;;14.46;66.72
59435;BME280;45241;49.768;8.636;2023-04-28T00:20:46;99982.19;;;14.22;67.56
59435;BME280;45241;49.768;8.636;2023-04-28T00:23:11;99985.28;;;14.00;69.47
59435;BME280;45241;49.768;8.636;2023-04-28T00:25:37;99991.28;;;14.02;69.28
59435;BME280;45241;49.768;8.636;2023-04-28T00:28:02;99989.34;;;14.09;68.97
59435;BME280;45241;49.768;8.636;2023-04-28T00:30:31;99986.13;;;14.26;69.44
59435;BME280;45241;49.768;8.636;2023-04-28T00:32:56;99987.00;;;14.20;70.25
59435;BME280;45241;49.768;8.636;2023-04-28T00:35:22;99972.22;;;14.29;69.85
59435;BME280;45241;49.768;8.636;2023-04-28T00:37:47;99967.66;;;14.29;71.72
59435;BME280;45241;49.768;8.636;2023-04-28T00:40:13;99971.50;;;14.40;73.04
59435;BME280;45241;49.768;8.636;2023-04-28T00:42:38;99959.13;;;14.32;71.42
59435;BME280;45241;49.768;8.636;2023-04-28T00:45:04;99953.00;;;14.19;73.60
59435;BME280;45241;49.768;8.636;2023-04-28T00:47:33;99950.53;;;14.42;72.09
59435;BME280;45241;49.768;8.636;2023-04-28T00:49:59;99953.78;;;14.26;71.54
59435;BME280;45241;49.768;8.636;2023-04-28T00:52:26;99933.44;;;14.30;68.95
59435;BME280;45241;49.768;8.636;2023-04-28T00:54:52;99936.22;;;14.17;70.92
59435;BME280;45241;49.768;8.636;2023-04-28T00:57:18;99928.34;;;14.40;68.92
59435;BME280;45241;49.768;8.636;2023-04-28T00:59:43;99922.50;;;14.43;68.63
59435;BME280;45241;49.768;8.636;2023-04-28T01:02:08;99917.28;;;14.23;72.38
59435;BME280;45241;49.768;8.636;2023-04-28T01:04:41;99913.75;;;14.23;71.87
59435;BME280;45241;49.768;8.636;2023-04-28T01:07:07;99909.56;;;14.27;73.21
59435;BME280;45241;49.768;8.636;2023-04-28T01:09:32;99905.56;;;14.36;73.76
59435;BME280;45241;49.768;8.636;2023-04-28T01:11:57;99890.38;;;14.17;76.09
59435;BME280;45241;49.768;8.636;2023-04-28T01:14:23;99886.78;;;14.23;76.28
59435;BME280;45241;49.768;8.636;2023-04-28T01:16:48;99879.63;;;14.35;75.26
59435;BME280;45241;49.768;8.636;2023-04-28T01:19:21;99891.50;;;14.09;75.28
59435;BME280;45241;49.768;8.636;2023-04-28T01:21:47;99885.44;;;14.14;76.01
59435;BME280;45241;49.768;8.636;2023-04-28T01:24:13;99882.63;;;14.27;73.73
59435;BME280;45241;49.768;8.636;2023-04-28T01:26:38;99884.16;;;14.41;73.95
59435;BME280;45241;49.768;8.636;2023-04-28T01:29:04;99875.59;;;14.26;75.80
59435;BME280;45241;49.768;8.636;2023-04-28T01:31:29;99878.41;;;14.13;75.61
59435;BME280;45241;49.768;8.636;2023-04-28T01:33:55;99876.59;;;14.25;75.72
59435;BME280;45241;49.768;8.636;2023-04-28T01:36:20;99879.28;;;14.31;76.58
59435;BME280;45241;49.768;8.636;2023-04-28T01:38:47;99871.66;;;14.22;77.77
59435;BME280;45241;49.768;8.636;2023-04-28T01:41:13;99879.41;;;14.36;77.98
59435;BME280;45241;49.768;8.636;2023-04-28T01:43:38;99877.41;;;14.32;76.78
59435;BME280;45241;49.768;8.636;2023-04-28T01:46:03;99875.28;;;14.34;77.62
59435;BME280;45241;49.768;8.636;2023-04-28T01:48:29;99873.78;;;14.38;76.25
59435;BME280;45241;49.768;8.636;2023-04-28T01:50:54;99877.16;;;14.33;77.19
59435;BME280;45241;49.768;8.636;2023-04-28T01:53:20;99873.22;;;14.11;78.67
59435;BME280;45241;49.768;8.636;2023-04-28T01:55:45;99875.09;;;14.10;76.81
59435;BME280;45241;49.768;8.636;2023-04-28T01:58:11;99870.16;;;14.07;77.96
59435;BME280;45241;49.768;8.636;2023-04-28T02:00:37;99874.34;;;14.22;79.17
59435;BME280;45241;49.768;8.636;2023-04-28T02:03:02;99877.31;;;13.95;80.68
59435;BME280;45241;49.768;8.636;2023-04-28T02:05:27;99866.41;;;14.08;81.55
59435;BME280;45241;49.768;8.636;2023-04-28T02:07:53;99860.69;;;13.98;78.56
59435;BME280;45241;49.768;8.636;2023-04-28T02:10:18;99858.91;;;14.10;78.52
59435;BME280;45241;49.768;8.636;2023-04-28T02:12:43;99866.63;;;14.07;80.96
59435;BME280;45241;49.768;8.636;2023-04-28T02:15:09;99873.97;;;14.00;81.35
59435;BME280;45241;49.768;8.636;2023-04-28T02:17:34;99872.56;;;14.16;81.54
59435;BME280;45241;49.768;8.636;2023-04-28T02:20:00;99877.66;;;14.05;82.51
59435;BME280;45241;49.768;8.636;2023-04-28T02:22:25;99876.03;;;13.98;84.29
59435;BME280;45241;49.768;8.636;2023-04-28T02:24:50;99882.13;;;14.12;84.31
59435;BME280;45241;49.768;8.636;2023-04-28T02:27:16;99881.38;;;14.04;84.42
59435;BME280;45241;49.768;8.636;2023-04-28T02:29:41;99895.59;;;13.93;83.89
59435;BME280;45241;49.768;8.636;2023-04-28T02:32:07;99887.59;;;14.05;81.06
59435;BME280;45241;49.768;8.636;2023-04-28T02:34:32;99885.00;;;14.17;81.72
59435;BME280;45241;49.768;8.636;2023-04-28T02:36:58;99885.88;;;14.10;82.87
59435;BME280;45241;49.768;8.636;2023-04-28T02:39:23;99886.00;;;13.97;82.88
59435;BME280;45241;49.768;8.636;2023-04-28T02:41:54;99892.41;;;13.78;84.58
59435;BME280;45241;49.768;8.636;2023-04-28T02:44:19;99896.72;;;13.61;83.63
59435;BME280;45241;49.768;8.636;2023-04-28T02:46:45;99894.91;;;13.73;82.71
59435;BME280;45241;49.768;8.636;2023-04-28T02:49:10;99891.63;;;13.71;82.37
59435;BME280;45241;49.768;8.636;2023-04-28T02:51:36;99883.31;;;13.72;84.01
59435;BME280;45241;49.768;8.636;2023-04-28T02:54:01;99880.63;;;13.72;86.95
59435;BME280;45241;49.768;8.636;2023-04-28T02:56:26;99874.00;;;13.75;86.79
59435;BME280;45241;49.768;8.636;2023-04-28T02:58:54;99867.50;;;13.83;88.57
59435;BME280;45241;49.768;8.636;2023-04-28T03:01:19;99861.47;;;13.87;86.09
59435;BME280;45241;49.768;8.636;2023-04-28T03:03:44;99863.38;;;13.80;88.03
59435;BME280;45241;49.768;8.636;2023-04-28T03:06:10;99851.91;;;13.85;86.46
59435;BME280;45241;49.768;8.636;2023-04-28T03:08:35;99850.22;;;13.90;86.28
59435;BME280;45241;49.768;8.636;2023-04-28T03:11:00;99857.72;;;13.88;87.41
59435;BME280;45241;49.768;8.636;2023-04-28T03:13:26;99862.94;;;13.83;88.11
59435;BME280;45241;49.768;8.636;2023-04-28T03:15:51;99855.28;;;13.80;86.96
59435;BME280;45241;49.768;8.636;2023-04-28T03:18:16;99844.09;;;14.01;86.93
59435;BME280;45241;49.768;8.636;2023-04-28T03:20:43;99842.84;;;14.04;87.96
59435;BME280;45241;49.768;8.636;2023-04-28T03:23:08;99839.69;;;14.07;88.25
59435;BME280;45241;49.768;8.636;2023-04-28T03:25:33;99845.97;;;14.01;88.50
59435;BME280;45241;49.768;8.636;2023-04-28T03:27:58;99843.78;;;13.91;89.59
59435;BME280;45241;49.768;8.636;2023-04-28T03:30:24;99831.28;;;13.97;88.58
59435;BME280;45241;49.768;8.636;2023-04-28T03:32:49;99826.66;;;14.04;88.13
59435;BME280;45241;49.768;8.636;2023-04-28T03:35:14;99839.13;;;13.98;88.36
59435;BME280;45241;49.768;8.636;2023-04-28T03:37:40;99851.06;;;13.66;89.81
59435;BME280;45241;49.768;8.636;2023-04-28T03:40:06;99841.94;;;13.67;89.35
59435;BME280;45241;49.768;8.636;2023-04-28T03:42:31;99833.84;;;13.92;86.41
59435;BME280;45241;49.768;8.636;2023-04-28T03:44:56;99838.91;;;13.82;86.32
59435;BME280;45241;49.768;8.636;2023-04-28T03:47:22;99832.94;;;13.98;87.50
59435;BME280;45241;49.768;8.636;2023-04-28T03:49:47;99830.81;;;13.82;87.66
59435;BME280;45241;49.768;8.636;2023-04-28T03:52:12;99835.56;;;14.04;86.38
59435;BME280;45241;49.768;8.636;2023-04-28T03:54:38;99820.09;;;14.00;86.91
59435;BME280;45241;49.768;8.636;2023-04-28T03:57:03;99819.41;;;13.86;87.35
59435;BME280;45241;49.768;8.636;2023-04-28T03:59:28;99822.91;;;13.87;86.56
59435;BME280;45241;49.768;8.636;2023-04-28T04:01:54;99813.47;;;13.96;87.37
59435;BME280;45241;49.768;8.636;2023-04-28T04:04:19;99802.38;;;13.86;89.72
59435;BME280;45241;49.768;8.636;2023-04-28T04:06:45;99803.22;;;13.86;89.45
59435;BME280;45241;49.768;8.636;2023-04-28T04:09:10;99797.38;;;13.89;88.86
59435;BME280;45241;49.768;8.636;2023-04-28T04:11:36;99792.88;;;13.83;89.97
59435;BME280;45241;49.768;8.636;2023-04-28T04:14:01;99785.09;;;13.93;89.33
59435;BME280;45241;49.768;8.636;2023-04-28T04:16:26;99780.47;;;14.00;88.66
59435;BME280;45241;49.768;8.636;2023-04-28T04:18:53;99773.28;;;13.94;90.53
59435;BME280;45241;49.768;8.636;2023-04-28T04:21:18;99773.88;;;13.96;92.61
59435;BME280;45241;49.768;8.636;2023-04-28T04:23:43;99777.31;;;13.85;94.63
59435;BME280;45241;49.768;8.636;2023-04-28T04:26:09;99772.31;;;13.89;92.17
59435;BME280;45241;49.768;8.636;2023-04-28T04:28:34;99780.00;;;13.85;91.54
59435;BME280;45241;49.768;8.636;2023-04-28T04:30:59;99773.69;;;13.73;93.11
59435;BME280;45241;49.768;8.636;2023-04-28T04:33:26;99765.44;;;13.74;90.20
59435;BME280;45241;49.768;8.636;2023-04-28T04:35:53;99785.41;;;13.17;96.61
59435;BME280;45241;49.768;8.636;2023-04-28T04:38:18;99780.03;;;13.42;95.31
59435;BME280;45241;49.768;8.636;2023-04-28T04:40:43;99776.69;;;13.65;94.07
59435;BME280;45241;49.768;8.636;2023-04-28T04:43:09;99760.53;;;13.83;95.18
59435;BME280;45241;49.768;8.636;2023-04-28T04:45:34;99764.97;;;13.77;94.11
59435;BME280;45241;49.768;8.636;2023-04-28T04:48:00;99771.00;;;13.73;94.02
59435;BME280;45241;49.768;8.636;2023-04-28T04:50:25;99778.19;;;13.61;96.10
59435;BME280;45241;49.768;8.636;2023-04-28T04:52:51;99776.84;;;13.70;94.75
59435;BME280;45241;49.768;8.636;2023-04-28T04:55:18;99776.09;;;13.63;95.07
59435;BME280;45241;49.768;8.636;2023-04-28T04:57:43;99770.81;;;13.74;94.47
59435;BME280;45241;49.768;8.636;2023-04-28T05:00:09;99775.25;;;13.87;95.42
59435;BME280;45241;49.768;8.636;2023-04-28T05:02:35;99775.09;;;14.00;93.85
59435;BME280;45241;49.768;8.636;2023-04-28T05:05:00;99777.63;;;13.77;95.63
59435;BME280;45241;49.768;8.636;2023-04-28T05:07:26;99778.81;;;13.81;96.30
59435;BME280;45241;49.768;8.636;2023-04-28T05:09:51;99786.88;;;13.81;94.96
59435;BME280;45241;49.768;8.636;2023-04-28T05:12:16;99785.38;;;13.85;95.34
59435;BME280;45241;49.768;8.636;2023-04-28T05:14:41;99794.16;;;13.80;92.37
59435;BME280;45241;49.768;8.636;2023-04-28T05:17:07;99787.50;;;14.01;91.87
59435;BME280;45241;49.768;8.636;2023-04-28T05:19:32;99789.16;;;14.02;93.46
59435;BME280;45241;49.768;8.636;2023-04-28T05:21:57;99785.56;;;14.08;92.08
59435;BME280;45241;49.768;8.636;2023-04-28T05:24:24;99782.25;;;14.06;92.12
59435;BME280;45241;49.768;8.636;2023-04-28T05:26:50;99778.28;;;14.09;89.74
59435;BME280;45241;49.768;8.636;2023-04-28T05:29:16;99788.84;;;14.10;90.71
59435;BME280;45241;49.768;8.636;2023-04-28T05:31:41;99773.19;;;14.19;89.84
59435;BME280;45241;49.768;8.636;2023-04-28T05:34:07;99775.06;;;14.19;89.66
59435;BME280;45241;49.768;8.636;2023-04-28T05:36:32;99776.13;;;14.18;88.77
59435;BME280;45241;49.768;8.636;2023-04-28T05:38:57;99769.25;;;14.03;90.14
59435;BME280;45241;49.768;8.636;2023-04-28T05:41:24;99765.97;;;14.01;91.03
59435;BME280;45241;49.768;8.636;2023-04-28T05:43:50;99772.00;;;13.97;94.95
59435;BME280;45241;49.768;8.636;2023-04-28T05:46:16;99782.94;;;14.02;94.48
59435;BME280;45241;49.768;8.636;2023-04-28T05:48:41;99780.69;;;13.99;96.35
59435;BME280;45241;49.768;8.636;2023-04-28T05:51:06;99783.59;;;13.97;95.99
59435;BME280;45241;49.768;8.636;2023-04-28T05:53:31;99793.19;;;13.93;97.56
59435;BME280;45241;49.768;8.636;2023-04-28T05:55:57;99797.31;;;13.96;96.69
59435;BME280;45241;49.768;8.636;2023-04-28T05:58:22;99789.81;;;13.98;94.38
59435;BME280;45241;49.768;8.636;2023-04-28T06:00:48;99799.00;;;13.72;99.68
59435;BME280;45241;49.768;8.636;2023-04-28T06:03:13;99809.94;;;13.77;98.16
59435;BME280;45241;49.768;8.636;2023-04-28T06:05:42;99810.41;;;13.49;100.00
59435;BME280;45241;49.768;8.636;2023-04-28T06:08:08;99816.75;;;13.79;100.00
59435;BME280;45241;49.768;8.636;2023-04-28T06:10:33;99819.31;;;13.74;100.00
59435;BME280;45241;49.768;8.636;2023-04-28T06:12:58;99817.94;;;13.65;100.00
59435;BME280;45241;49.768;8.636;2023-04-28T06:15:23;99814.97;;;13.73;100.00
59435;BME280;45241;49.768;8.636;2023-04-28T06:17:49;99811.72;;;13.65;100.00
59435;BME280;45241;49.768;8.636;2023-04-28T06:20:15;99801.53;;;13.67;100.00
59435;BME280;45241;49.768;8.636;2023-04-28T06:22:40;99800.69;;;13.91;100.00
59435;BME280;45241;49.768;8.636;2023-04-28T06:25:06;99809.34;;;13.93;100.00
59435;BME280;45241;49.768;8.636;2023-04-28T06:27:31;99816.44;;;13.69;100.00
59435;BME280;45241;49.768;8.636;2023-04-28T06:29:57;99807.41;;;13.82;100.00
59435;BME280;45241;49.768;8.636;2023-04-28T06:32:23;99810.69;;;13.84;100.00
59435;BME280;45241;49.768;8.636;2023-04-28T06:34:48;99809.50;;;13.80;100.00
59435;BME280;45241;49.768;8.636;2023-04-28T06:37:13;99822.75;;;13.57;100.00
59435;BME280;45241;49.768;8.636;2023-04-28T06:39:39;99821.88;;;13.88;100.00
59435;BME280;45241;49.768;8.636;2023-04-28T06:42:04;99817.94;;;13.84;100.00
59435;BME280;45241;49.768;8.636;2023-04-28T06:44:30;99824.16;;;13.41;100.00
59435;BME280;45241;49.768;8.636;2023-04-28T06:46:55;99819.03;;;13.58;100.00
59435;BME280;45241;49.768;8.636;2023-04-28T06:49:21;99833.88;;;13.42;100.00
59435;BME280;45241;49.768;8.636;2023-04-28T06:51:46;99826.91;;;13.34;100.00
59435;BME280;45241;49.768;8.636;2023-04-28T06:54:11;99817.78;;;13.60;100.00
59435;BME280;45241;49.768;8.636;2023-04-28T06:56:37;99813.63;;;13.58;100.00
59435;BME280;45241;49.768;8.636;2023-04-28T06:59:03;99810.81;;;13.71;100.00
59435;BME280;45241;49.768;8.636;2023-04-28T07:01:28;99804.22;;;13.67;100.00
59435;BME280;45241;49.768;8.636;2023-04-28T07:03:53;99807.91;;;13.72;100.00
59435;BME280;45241;49.768;8.636;2023-04-28T07:06:19;99800.03;;;13.71;100.00
59435;BME280;45241;49.768;8.636;2023-04-28T07:08:44;99800.31;;;13.88;100.00
59435;BME280;45241;49.768;8.636;2023-04-28T07:11:10;99795.28;;;13.91;100.00
59435;BME280;45241;49.768;8.636;2023-04-28T07:13:36;99801.41;;;13.98;100.00
59435;BME280;45241;49.768;8.636;2023-04-28T07:16:01;99777.25;;;13.92;100.00
59435;BME280;45241;49.768;8.636;2023-04-28T07:18:26;99794.09;;;13.87;100.00
59435;BME280;45241;49.768;8.636;2023-04-28T07:20:52;99799.53;;;13.80;100.00
59435;BME280;45241;49.768;8.636;2023-04-28T07:23:17;99787.34;;;13.96;100.00
59435;BME280;45241;49.768;8.636;2023-04-28T07:25:43;99786.38;;;14.09;100.00
59435;BME280;45241;49.768;8.636;2023-04-28T07:28:08;99782.44;;;14.30;100.00
59435;BME280;45241;49.768;8.636;2023-04-28T07:30:34;99786.31;;;14.52;100.00
59435;BME280;45241;49.768;8.636;2023-04-28T07:33:00;99780.28;;;14.50;100.00
59435;BME280;45241;49.768;8.636;2023-04-28T07:35:27;99773.88;;;14.51;100.00
59435;BME280;45241;49.768;8.636;2023-04-28T07:37:52;99778.66;;;14.49;100.00
59435;BME280;45241;49.768;8.636;2023-04-28T07:40:18;99791.19;;;14.44;100.00
59435;BME280;45241;49.768;8.636;2023-04-28T07:42:44;99782.34;;;14.36;100.00
59435;BME280;45241;49.768;8.636;2023-04-28T07:45:10;99773.44;;;13.99;100.00
59435;BME280;45241;49.768;8.636;2023-04-28T07:47:35;99755.72;;;14.28;100.00
59435;BME280;45241;49.768;8.636;2023-04-28T07:50:02;99755.75;;;14.40;100.00
59435;BME280;45241;49.768;8.636;2023-04-28T07:52:29;99769.66;;;14.55;100.00
59435;BME280;45241;49.768;8.636;2023-04-28T07:54:55;99772.47;;;14.60;100.00
59435;BME280;45241;49.768;8.636;2023-04-28T07:57:21;99775.66;;;14.57;100.00
59435;BME280;45241;49.768;8.636;2023-04-28T07:59:46;99779.44;;;14.68;100.00
59435;BME280;45241;49.768;8.636;2023-04-28T08:02:11;99768.66;;;14.68;100.00
59435;BME280;45241;49.768;8.636;2023-04-28T08:04:38;99773.28;;;14.79;100.00
59435;BME280;45241;49.768;8.636;2023-04-28T08:07:03;99776.94;;;14.55;100.00
59435;BME280;45241;49.768;8.636;2023-04-28T08:09:29;99790.94;;;14.45;100.00
59435;BME280;45241;49.768;8.636;2023-04-28T08:11:54;99778.97;;;14.41;100.00
59435;BME280;45241;49.768;8.636;2023-04-28T08:14:20;99781.69;;;14.41;100.00
59435;BME280;45241;49.768;8.636;2023-04-28T08:16:45;99773.41;;;14.54;100.00
59435;BME280;45241;49.768;8.636;2023-04-28T08:19:11;99777.56;;;14.38;100.00
59435;BME280;45241;49.768;8.636;2023-04-28T08:21:37;99780.03;;;14.40;100.00
59435;BME280;45241;49.768;8.636;2023-04-28T08:24:02;99772.00;;;14.52;100.00
59435;BME280;45241;49.768;8.636;2023-04-28T08:26:28;99783.38;;;14.84;100.00
59435;BME280;45241;49.768;8.636;2023-04-28T08:28:53;99777.31;;;15.00;100.00
59435;BME280;45241;49.768;8.636;2023-04-28T08:31:18;99786.25;;;15.12;100.00
59435;BME280;45241;49.768;8.636;2023-04-28T08:33:44;99782.63;;;15.07;100.00
59435;BME280;45241;49.768;8.636;2023-04-28T08:36:12;99775.13;;;15.20;100.00
59435;BME280;45241;49.768;8.636;2023-04-28T08:38:39;99781.44;;;15.14;100.00
59435;BME280;45241;49.768;8.636;2023-04-28T08:41:05;99794.13;;;15.14;100.00
59435;BME280;45241;49.768;8.636;2023-04-28T08:43:33;99789.75;;;15.01;100.00
59435;BME280;45241;49.768;8.636;2023-04-28T08:46:04;99782.19;;;15.45;100.00
59435;BME280;45241;49.768;8.636;2023-04-28T08:48:32;99792.97;;;15.21;100.00
59435;BME280;45241;49.768;8.636;2023-04-28T08:51:03;99793.00;;;15.33;100.00
59435;BME280;45241;49.768;8.636;2023-04-28T08:53:30;99796.84;;;15.25;100.00
59435;BME280;45241;49.768;8.636;2023-04-28T08:55:57;99802.59;;;15.41;100.00
59435;BME280;45241;49.768;8.636;2023-04-28T08:58:26;99805.28;;;15.17;100.00
59435;BME280;45241;49.768;8.636;2023-04-28T09:00:52;99793.91;;;15.27;100.00
59435;BME280;45241;49.768;8.636;2023-04-28T09:03:17;99807.78;;;15.31;100.00
59435;BME280;45241;49.768;8.636;2023-04-28T09:05:43;99796.16;;;15.53;100.00
59435;BME280;45241;49.768;8.636;2023-04-28T09:08:08;99798.78;;;15.60;100.00
59435;BME280;45241;49.768;8.636;2023-04-28T09:10:36;99807.38;;;15.57;100.00
59435;BME280;45241;49.768;8.636;2023-04-28T09:13:02;99808.16;;;15.46;100.00
59435;BME280;45241;49.768;8.636;2023-04-28T09:15:37;99807.34;;;15.80;100.00
59435;BME280;45241;49.768;8.636;2023-04-28T09:18:06;99809.78;;;15.47;100.00
59435;BME280;45241;49.768;8.636;2023-04-28T09:20:34;99812.38;;;15.53;100.00
59435;BME280;45241;49.768;8.636;2023-04-28T09:25:37;99814.72;;;15.50;100.00
59435;BME280;45241;49.768;8.636;2023-04-28T09:28:19;99807.09;;;15.47;100.00
59435;BME280;45241;49.768;8.636;2023-04-28T09:30:46;99807.63;;;15.55;100.00
59435;BME280;45241;49.768;8.636;2023-04-28T09:33:11;99808.63;;;15.43;100.00
59435;BME280;45241;49.768;8.636;2023-04-28T09:35:43;99796.91;;;15.72;100.00
59435;BME280;45241;49.768;8.636;2023-04-28T09:38:13;99797.25;;;16.11;100.00
59435;BME280;45241;49.768;8.636;2023-04-28T09:43:40;99808.41;;;16.03;100.00
59435;BME280;45241;49.768;8.636;2023-04-28T09:46:06;99806.31;;;15.81;100.00
59435;BME280;45241;49.768;8.636;2023-04-28T09:48:36;99804.63;;;16.04;100.00
59435;BME280;45241;49.768;8.636;2023-04-28T09:51:04;99809.34;;;16.08;100.00
59435;BME280;45241;49.768;8.636;2023-04-28T09:53:30;99803.53;;;16.28;100.00
59435;BME280;45241;49.768;8.636;2023-04-28T09:55:57;99811.44;;;16.18;100.00
59435;BME280;45241;49.768;8.636;2023-04-28T09:58:24;99807.00;;;16.12;100.00
59435;BME280;45241;49.768;8.636;2023-04-28T10:00:57;99807.78;;;16.24;100.00
59435;BME280;45241;49.768;8.636;2023-04-28T10:03:26;99805.41;;;16.39;100.00
59435;BME280;45241;49.768;8.636;2023-04-28T10:05:52;99810.22;;;16.37;100.00
59435;BME280;45241;49.768;8.636;2023-04-28T10:08:19;99805.50;;;16.33;100.00
59435;BME280;45241;49.768;8.636;2023-04-28T10:10:46;99812.13;;;16.25;100.00
59435;BME280;45241;49.768;8.636;2023-04-28T10:13:14;99816.66;;;16.08;100.00
59435;BME280;45241;49.768;8.636;2023-04-28T10:15:41;99805.09;;;16.24;100.00
59435;BME280;45241;49.768;8.636;2023-04-28T10:18:07;99813.69;;;16.21;100.00
59435;BME280;45241;49.768;8.636;2023-04-28T10:20:33;99806.84;;;16.19;100.00
59435;BME280;45241;49.768;8.636;2023-04-28T10:25:47;99804.03;;;16.13;100.00
59435;BME280;45241;49.768;8.636;2023-04-28T10:28:14;99799.34;;;16.21;100.00
59435;BME280;45241;49.768;8.636;2023-04-28T10:30:40;99798.09;;;16.40;100.00
59435;BME280;45241;49.768;8.636;2023-04-28T10:38:09;99795.34;;;16.11;100.00
59435;BME280;45241;49.768;8.636;2023-04-28T10:40:48;99792.06;;;16.09;100.00
59435;BME280;45241;49.768;8.636;2023-04-28T10:48:20;99786.13;;;16.36;100.00
59435;BME280;45241;49.768;8.636;2023-04-28T10:51:20;99789.38;;;16.50;100.00
59435;BME280;45241;49.768;8.636;2023-04-28T10:56:22;99779.78;;;16.70;100.00
59435;BME280;45241;49.768;8.636;2023-04-28T10:58:51;99786.66;;;16.50;100.00
59435;BME280;45241;49.768;8.636;2023-04-28T11:06:40;99786.00;;;16.71;100.00
59435;BME280;45241;49.768;8.636;2023-04-28T11:17:04;99799.75;;;16.41;100.00
59435;BME280;45241;49.768;8.636;2023-04-28T11:19:34;99793.69;;;16.62;100.00
59435;BME280;45241;49.768;8.636;2023-04-28T11:22:01;99794.13;;;16.59;100.00
59435;BME280;45241;49.768;8.636;2023-04-28T11:24:28;99791.78;;;16.63;100.00
59435;BME280;45241;49.768;8.636;2023-04-28T11:26:53;99799.78;;;16.69;100.00
59435;BME280;45241;49.768;8.636;2023-04-28T11:29:36;99790.25;;;16.67;100.00
59435;BME280;45241;49.768;8.636;2023-04-28T11:32:03;99793.19;;;16.77;100.00
59435;BME280;45241;49.768;8.636;2023-04-28T11:34:28;99794.75;;;16.61;100.00
59435;BME280;45241;49.768;8.636;2023-04-28T11:36:54;99802.53;;;16.46;100.00
59435;BME280;45241;49.768;8.636;2023-04-28T11:39:30;99789.16;;;16.39;100.00
59435;BME280;45241;49.768;8.636;2023-04-28T11:42:01;99800.09;;;16.33;100.00
59435;BME280;45241;49.768;8.636;2023-04-28T11:44:28;99795.84;;;16.49;100.00
59435;BME280;45241;49.768;8.636;2023-04-28T11:46:56;99791.41;;;16.71;100.00
59435;BME280;45241;49.768;8.636;2023-04-28T11:49:25;99802.94;;;16.66;100.00
59435;BME280;45241;49.768;8.636;2023-04-28T11:51:55;99795.66;;;16.67;100.00
59435;BME280;45241;49.768;8.636;2023-04-28T11:54:25;99783.69;;;16.63;100.00
59435;BME280;45241;49.768;8.636;2023-04-28T11:56:51;99785.06;;;16.77;100.00
59435;BME280;45241;49.768;8.636;2023-04-28T11:59:17;99784.56;;;16.80;100.00
59435;BME280;45241;49.768;8.636;2023-04-28T12:01:50;99805.44;;;16.56;100.00
59435;BME280;45241;49.768;8.636;2023-04-28T12:04:27;99793.28;;;16.42;100.00
59435;BME280;45241;49.768;8.636;2023-04-28T12:07:04;99778.97;;;16.58;100.00
59435;BME280;45241;49.768;8.636;2023-04-28T12:09:30;99785.78;;;16.72;100.00
59435;BME280;45241;49.768;8.636;2023-04-28T12:11:59;99789.97;;;16.80;100.00
59435;BME280;45241;49.768;8.636;2023-04-28T12:14:26;99795.16;;;16.41;100.00
59435;BME280;45241;49.768;8.636;2023-04-28T12:16:51;99789.91;;;16.75;100.00
59435;BME280;45241;49.768;8.636;2023-04-28T12:19:17;99796.16;;;16.92;100.00
59435;BME280;45241;49.768;8.636;2023-04-28T12:22:03;99792.38;;;16.93;100.00
59435;BME280;45241;49.768;8.636;2023-04-28T12:24:29;99796.34;;;17.02;100.00
59435;BME280;45241;49.768;8.636;2023-04-28T12:27:13;99786.47;;;16.96;100.00
59435;BME280;45241;49.768;8.636;2023-04-28T12:29:42;99788.78;;;17.05;100.00
59435;BME280;45241;49.768;8.636;2023-04-28T12:32:09;99786.97;;;16.93;100.00
59435;BME280;45241;49.768;8.636;2023-04-28T12:34:35;99795.59;;;16.50;100.00
59435;BME280;45241;49.768;8.636;2023-04-28T12:37:02;99798.34;;;16.79;100.00
59435;BME280;45241;49.768;8.636;2023-04-28T12:39:30;99799.72;;;16.81;100.00
59435;BME280;45241;49.768;8.636;2023-04-28T12:41:55;99800.44;;;17.05;100.00
59435;BME280;45241;49.768;8.636;2023-04-28T12:44:23;99804.78;;;16.89;100.00
59435;BME280;45241;49.768;8.636;2023-04-28T12:46:48;99791.88;;;16.96;100.00
59435;BME280;45241;49.768;8.636;2023-04-28T12:49:15;99793.19;;;16.94;100.00
59435;BME280;45241;49.768;8.636;2023-04-28T12:51:40;99779.78;;;17.16;100.00
59435;BME280;45241;49.768;8.636;2023-04-28T12:54:06;99773.97;;;17.41;100.00
59435;BME280;45241;49.768;8.636;2023-04-28T12:56:31;99776.84;;;17.51;100.00
59435;BME280;45241;49.768;8.636;2023-04-28T12:58:57;99778.31;;;17.42;100.00
59435;BME280;45241;49.768;8.636;2023-04-28T13:01:22;99782.66;;;17.26;100.00
59435;BME280;45241;49.768;8.636;2023-04-28T13:03:49;99774.28;;;17.44;100.00
59435;BME280;45241;49.768;8.636;2023-04-28T13:06:15;99776.50;;;17.64;100.00
59435;BME280;45241;49.768;8.636;2023-04-28T13:08:40;99780.66;;;17.72;100.00
59435;BME280;45241;49.768;8.636;2023-04-28T13:11:05;99768.00;;;17.60;100.00
59435;BME280;45241;49.768;8.636;2023-04-28T13:13:31;99772.97;;;18.02;100.00
59435;BME280;45241;49.768;8.636;2023-04-28T13:15:56;99769.91;;;17.77;100.00
59435;BME280;45241;49.768;8.636;2023-04-28T13:18:22;99775.25;;;18.10;100.00
59435;BME280;45241;49.768;8.636;2023-04-28T13:20:48;99774.63;;;18.03;100.00
59435;BME280;45241;49.768;8.636;2023-04-28T13:23:13;99773.09;;;18.12;100.00
59435;BME280;45241;49.768;8.636;2023-04-28T13:25:39;99773.84;;;17.86;100.00